Boy Lake, Minnesota
Current Conditions -  °F | °C
As of 7:36 PM on Friday 19 Dec 2014 (Local Time) from KXVG Reporting Station
Light Snow Light Snow  
Wind Chill: 15°   Ceiling: 300
Heat Index: 25°   Visibility: 1.5mi
Dew Point: 23°   Wind: 9mph
Humidity: 93%   Direction: 140°SE
Pressure: 30.09"   Gusts: NA
Location:  47.0632°N, 94.1534°W
Report Text: KXVG 200136Z AUTO 14008KT 1 1/2SM -SN OVC003 M04/M05 A3009 RMK AO2
Loading
Personal Weather Stations






























Interactive Weather Map New forecast layout! Learn more

10-Day Weather Forecast

Advertisements
Track Severe Weather on mobile